Main page
METAR-TAF:

METAR-TAF

Airports :

Ahvaz, Iran

Ahvaz International Airport

latitude: 31-20N, longitude: 048-40E, elevation: 20 m

Current weather observation

The report was made 26 minutes ago, at 04:30 UTC
Wind 4 kt from the South
Temperature 34°C
Humidity 75%
Pressure 1002 hPa
Visibility: 3000 m
haze

METAR: OIAW 240430Z 18004KT 3000 HZ NSC 34/29 Q1002

Time: 09:26 (04:56 UTC)

Forecast

The report was made 5 hours and 56 minutes ago, at 23:00 UTC
Forecast valid from 24 at 00 UTC to 25 at 06 UTC
Wind 6 kt from the East/Southeast
Visibility: 4000 m
haze
Becoming
from 24 at 09 UTC to 24 at 11 UTC
Wind 10 kt from the Southeast
Visibility: 8000 m
Temporary
from 24 at 16 UTC to 24 at 19 UTC
Wind 14 kt from the West
Becoming
from 25 at 00 UTC to 25 at 02 UTC
Wind 6 kt from the Southeast
Visibility: 5000 m
haze

TAF: OIAW 232300Z 2400/2506 12003MPS 4000 HZ BECMG 2409/2411 14005MPS 8000 NSC TEMPO 2416/2419 27007MPS BECMG 2500/2502 14003MPS 5000 HZ NSC

Weather observations and forecasts of more than 4000 airports (METAR and TAF reports).

The available stations are represented by yellow and red dots on the map.

Hover mouse over dot to see the name of the station.

Then click to see weather observations and forecasts.

To change the map : click on the green buttons with a black cross to zoom in, on the green button with a dash to zoom out, or on the green arrows for adjacent maps.


METAR-TAF: